Hawkins, Texas
Current Conditions -  °F | °C
As of 9:53 PM on Friday 19 Dec 2014 (Local Time) from KTYR Reporting Station
Haze Haze  
Wind Chill: 43°   Ceiling: 300
Heat Index: 47°   Visibility: 5mi
Dew Point: 44°   Wind: 9mph
Humidity: 90%   Direction: 50°NE
Pressure: 30.19"   Gusts: NA
Location:  32.59°N, 95.2°W
Report Text: KTYR 200353Z AUTO 05008KT 5SM BR OVC003 08/07 A3019 RMK AO2 SLP222 T00830067
Loading
Personal Weather Stations






























Interactive Weather Map New forecast layout! Learn more

10-Day Weather Forecast

Advertisements
Track Severe Weather on mobile